Metar Cercanos

 

LEPA - Palma De Mallorc, Spain
Distance from station: ONO 38km
Actualización: 21/02/2018 08:00
Lluvia débil, Muy nuboso
Lluvia débil, Muy nuboso
 Viento del varies
Viento: varies 2 km/h
Temperatura: 10°C
Rocío: 8°C
Humedad: 88%
Barómetro: 1006 hPa
Resumen: Lluvia débil
Clouds: Muy nuboso
Visibility: 10 km
Cloud details: Few Clouds 762 m
Muy nuboso 1524 m
2018/02/21 07:00 LEPA 210700Z VRB01KT 9999 -RA FEW025 BKN050 10/08 Q1006 NOSIG
LEMH - Mahon/Menorca Is, Spain
Distance from station: ENE 105km
Actualización: 21/02/2018 08:00
Lluvia débil, Showers, Few clouds
Lluvia débil, Showers, Few clouds
 Viento del NNE
Viento: NNE 20 km/h
Temperatura: 8°C
Sensación frio: 4°C
Rocío: 4°C
Humedad: 76%
Barómetro: 1006 hPa
Resumen: Lluvia débil, Showers
Clouds: Few Clouds
Visibility: 10 km
Cloud details: Few Clouds 975 m
Few Clouds 1372 m
2018/02/21 07:00 LEMH 210700Z 02011KT 9999 -SHRA FEW032 FEW045TCU 08/04 Q1006
 
LEIB - Ibiza/Es Codola, Spain
Distance from station: OSO 165km
Actualización: 21/02/2018 08:00
Parcialmente nuboso
Parcialmente nuboso
 Viento del N
Viento: N 7 km/h
Temperatura: 12°C
Rocío: 7°C
Humedad: 72%
Barómetro: 1006 hPa
Clouds: Parcialmente nuboso
Visibility: 10 km
Cloud details: Few Clouds 549 m
Parcialmente nuboso 610 m
2018/02/21 07:00 LEIB 210700Z 36004KT 330V030 9999 FEW018 SCT020 12/07 Q1006 NOSIG
LEBL - Barcelona Airpor, Spain
Distance from station: NNO 225km
Actualización: 21/02/2018 08:00
Muy nuboso
Muy nuboso
 Viento del N
Viento: N 17 km/h
Temperatura: 9°C
Sensación frio: 7°C
Rocío: 3°C
Humedad: 66%
Barómetro: 1007 hPa
Clouds: Muy nuboso
Visibility: 10 km
Cloud details: Few Clouds 610 m
Muy nuboso 1067 m
2018/02/21 07:00 LEBL 210700Z 35009KT 9999 FEW020 BKN035 09/03 Q1007 NOSIG
 
LEVC - Valencia (civ/Mi, Spain
Distance from station: NO 188km
Actualización: 21/02/2018 08:00
Despejado
Despejado
 Viento del NO
Viento: NO 17 km/h
Temperatura: 12°C
Rocío: 1°C
Humedad: 47%
Barómetro: 1007 hPa
Resumen: Despejado
Visibility: greater than 10 km
2018/02/21 07:00 LEVC 210700Z 32009KT CAVOK 12/01 Q1007 NOSIG
LEGE - Gerona/Costa Bra, Spain
Distance from station: N 276km
Actualización: 21/02/2018 08:00
Parcialmente nuboso
Parcialmente nuboso
 Viento del NNE
Viento: NNE 24 km/h, Racha: 43 km/h
Temperatura: 8°C
Sensación frio: 4°C
Rocío: 2°C
Humedad: 66%
Barómetro: 1007 hPa
Clouds: Parcialmente nuboso
Visibility: 10 km
Cloud details: Parcialmente nuboso 1524 m
Parcialmente nuboso 1981 m
2018/02/21 07:00 LEGE 210700Z 02013G23KT 350V050 9999 SCT050 SCT065 08/02 Q1007 NOSIG
 
LEAL - Alicante/El Alte, Spain
Distance from station: OSO 344km
Actualización: 21/02/2018 08:00
Muy nuboso
Muy nuboso
 Viento del ONO
Viento: ONO 24 km/h
Temperatura: 11°C
Rocío: 1°C
Humedad: 50%
Barómetro: 1006 hPa
Clouds: Muy nuboso
Visibility: 10 km
Cloud details: Muy nuboso 1676 m
2018/02/21 07:00 LEAL 210700Z 30013KT 9999 BKN055 11/01 Q1006 NOSIG
LEAM - Almeria Airport, Spain
Distance from station: SSO 56km
Actualización: 21/02/2018 08:00
Parcialmente nuboso
Parcialmente nuboso
 Viento del NNE
Viento: NNE 13 km/h
Temperatura: 11°C
Rocío: 10°C
Humedad: 94%
Barómetro: 1006 hPa
Clouds: Parcialmente nuboso
Visibility: 8 km
Cloud details: Parcialmente nuboso 305 m
2018/02/21 07:00 LEAM 210700Z 02007KT 8000 SCT010 11/10 Q1006
 
LEZG - Zaragoza (mil/Ci, Spain
Distance from station: NO 431km
Actualización: 21/02/2018 08:00
Few Clouds
Few Clouds
 Viento del ONO
Viento: ONO 46 km/h
Temperatura: 6°C
Sensación frio: 1°C
Rocío: 2°C
Humedad: 76%
Barómetro: 1010 hPa
Clouds: Few Clouds
Visibility: 10 km
Cloud details: Few Clouds 1219 m
2018/02/21 07:00 LEZG 210700Z 30025KT 9999 FEW040 06/02 Q1010
LEMD - Madrid/Barajas, Spain
Distance from station: ONO 234km
Actualización: 21/02/2018 08:00
Despejado
Despejado
 Viento del N
Viento: N 26 km/h, Racha: 44 km/h
Temperatura: 7°C
Sensación frio: 3°C
Rocío: -1°C
Humedad: 57%
Barómetro: 1011 hPa
Resumen: Despejado
Visibility: greater than 10 km
2018/02/21 07:00 LEMD 210700Z 35014G24KT CAVOK 07/M01 Q1011 NOSIG
 
LEGR - Granada Airport, Spain
Distance from station: OSO 62km
Actualización: 21/02/2018 08:00
Few Clouds
Few Clouds
 Viento del N
Viento: N 9 km/h
Temperatura: 6°C
Sensación frio: 4°C
Rocío: 0°C
Humedad: 66%
Barómetro: 1009 hPa
Clouds: Few Clouds
Visibility: 10 km
Cloud details: Few Clouds 914 m
2018/02/21 07:00 LEGR 210700Z 36005KT 300V050 9999 FEW030 06/00 Q1009
LEMG - Malaga (civ/Mil), Spain
Distance from station: OSO 227km
Actualización: 21/02/2018 08:00
Despejado
Despejado
 Viento del O
Viento: O 30 km/h
Temperatura: 13°C
Rocío: 4°C
Humedad: 55%
Barómetro: 1007 hPa
Resumen: Despejado
Visibility: greater than 10 km
2018/02/21 07:00 LEMG 210700Z 27016KT 240V300 CAVOK 13/04 Q1007 NOSIG
 
LEZL - Sevilla (civ/Mil, Spain
Distance from station: S 318km
Actualización: 21/02/2018 08:00
Despejado
Despejado
 Viento del N
Viento: N 7 km/h
Temperatura: 8°C
Sensación frio: 7°C
Rocío: 4°C
Humedad: 76%
Barómetro: 1010 hPa
Resumen: Despejado
Visibility: greater than 10 km
2018/02/21 07:00 LEZL 210700Z 01004KT 340V060 CAVOK 08/04 Q1010 NOSIG
LEVT - Vitoria, Spain
Distance from station: NO 226km
Actualización: 21/02/2018 08:00
Lluvia débil, Muy nuboso
Lluvia débil, Muy nuboso
 Viento del N
Viento: N 26 km/h
Temperatura: 3°C
Sensación frio: -2°C
Rocío: 1°C
Humedad: 87%
Barómetro: 1016 hPa
Resumen: Lluvia débil
Clouds: Muy nuboso
Visibility: 8 km
Cloud details: Parcialmente nuboso 457 m
Muy nuboso 914 m
2018/02/21 07:00 LEVT 210700Z 01014KT 8000 -RA SCT015 BKN030 03/01 Q1016
 
LEBB - Bilbao/Sondica, Spain
Distance from station: NNO 235km
Actualización: 21/02/2018 08:00
Muy nuboso
Muy nuboso
 Viento del N
Viento: N 19 km/h
Temperatura: 9°C
Sensación frio: 6°C
Rocío: 4°C
Humedad: 71%
Barómetro: 1018 hPa
Clouds: Muy nuboso
Visibility: 10 km
Cloud details: Parcialmente nuboso 975 m
Muy nuboso 1768 m
2018/02/21 07:00 LEBB 210700Z 01010KT 340V050 9999 SCT032 BKN058 09/04 Q1018 NOSIG
LESO - San Sebastian/Fu, Spain
Distance from station: N 231km
Actualización: 21/02/2018 08:00
Muy nuboso
Muy nuboso
 Viento del NNE
Viento: NNE 24 km/h
Temperatura: 9°C
Sensación frio: 6°C
Rocío: 4°C
Humedad: 71%
Barómetro: 1017 hPa
Clouds: Muy nuboso
Visibility: 10 km
Cloud details: Parcialmente nuboso 640 m
Parcialmente nuboso 1067 m
Muy nuboso 1372 m
2018/02/21 07:00 LESO 210700Z 02013KT 330V060 9999 SCT021 SCT035 BKN045 09/04 Q1017
 
LEVD - Valladolid(Mil/C, Spain
Distance from station: ONO 239km
Actualización: 21/02/2018 08:00
Parcialmente nuboso
Parcialmente nuboso
 Viento del NE
Viento: NE 15 km/h
Temperatura: 1°C
Sensación frio: -3°C
Rocío: -1°C
Humedad: 87%
Barómetro: 1014 hPa
Clouds: Parcialmente nuboso
Visibility: 10 km
Cloud details: Parcialmente nuboso 1128 m
2018/02/21 07:00 LEVD 210700Z 05008KT 010V070 9999 SCT037 01/M01 Q1014
LESA - Salamanca (civ/M, Spain
Distance from station: ONO 349km
Actualización: 21/02/2018 08:00
Partial fog, Parcialmente nuboso
Partial fog, Parcialmente nuboso
 Viento del varies
Viento: varies 4 km/h
Temperatura: -4°C
Rocío: -5°C
Humedad: 93%
Barómetro: 1014 hPa
Resumen: Partial Fog
Clouds: Parcialmente nuboso
Visibility: 7 km
2018/02/21 07:00 LESA 210700Z VRB02KT 7000 3000W PRFG NSC M04/M05 Q1014
 
LEXJ - Santander/Paraya, Spain
Distance from station: NNO 247km
Actualización: 21/02/2018 08:00
Muy nuboso
Muy nuboso
 Viento del NNE
Viento: NNE 9 km/h
Temperatura: 9°C
Sensación frio: 7°C
Rocío: 5°C
Humedad: 76%
Barómetro: 1019 hPa
Clouds: Muy nuboso
Visibility: 10 km
Cloud details: Parcialmente nuboso 975 m
Muy nuboso 1463 m
2018/02/21 07:00 LEXJ 210700Z 02005KT 340V060 9999 SCT032 BKN048 09/05 Q1019
LEAS - Asturias/Aviles, Spain
Distance from station: NO 214km
Actualización: 21/02/2018 08:00
Parcialmente nuboso
Parcialmente nuboso
 Viento del varies
Viento: varies 2 km/h
Temperatura: 7°C
Rocío: 4°C
Humedad: 81%
Barómetro: 1020 hPa
Clouds: Parcialmente nuboso
Visibility: 10 km
Cloud details: Few Clouds 762 m
Parcialmente nuboso 1676 m
2018/02/21 07:00 LEAS 210700Z VRB01KT 9999 FEW025 SCT055 07/04 Q1020 NOSIG
 
LECO - La Coruna/Alvedr, Spain
Distance from station: ONO 222km
Actualización: 21/02/2018 08:00
Parcialmente nuboso
Parcialmente nuboso
 Viento del NE
Viento: NE 11 km/h
Temperatura: 8°C
Sensación frio: 6°C
Rocío: 3°C
Humedad: 71%
Barómetro: 1020 hPa
Clouds: Parcialmente nuboso
Visibility: 10 km
Cloud details: Parcialmente nuboso 1219 m
2018/02/21 07:00 LECO 210700Z 04006KT 9999 SCT040 08/03 Q1020 NOSIG
LEVX - Vigo/Peinador, Spain
Distance from station: O 214km
Actualización: 21/02/2018 08:00
Despejado
Despejado
 Viento del NNO
Viento: NNO 9 km/h
Temperatura: 5°C
Sensación frio: 3°C
Rocío: 2°C
Humedad: 81%
Barómetro: 1016 hPa
Resumen: Despejado
Visibility: greater than 10 km
2018/02/21 07:00 LEVX 210700Z 33005KT 280V360 CAVOK 05/02 Q1016 NOSIG